createdAt,value
2023-01-29T00:01:58.102Z,-10.52
2023-01-29T00:05:13.038Z,-10.52
2023-01-29T00:08:23.923Z,-10.67
2023-01-29T00:11:27.025Z,-10.67
2023-01-29T00:14:29.990Z,-10.57
2023-01-29T00:17:33.755Z,-10.45
2023-01-29T00:20:37.051Z,-10.32
2023-01-29T00:23:40.663Z,-10.22
2023-01-29T00:26:43.917Z,-10.15
2023-01-29T00:30:08.042Z,-10.07
2023-01-29T00:33:13.979Z,-9.90
2023-01-29T00:36:18.966Z,-9.85
2023-01-29T00:39:31.451Z,-9.90
2023-01-29T00:43:00.962Z,-9.87
2023-01-29T00:46:07.091Z,-9.78
2023-01-29T00:52:32.394Z,-9.60
2023-01-29T00:55:36.358Z,-9.54
2023-01-29T00:58:40.638Z,-9.43
2023-01-29T01:02:02.975Z,-9.33
2023-01-29T01:05:08.269Z,-9.32
2023-01-29T01:08:30.933Z,-9.11
2023-01-29T01:11:34.813Z,-9.04
2023-01-29T01:14:38.910Z,-8.94
2023-01-29T01:17:42.564Z,-8.87
2023-01-29T01:20:46.535Z,-8.74
2023-01-29T01:23:52.436Z,-8.56
2023-01-29T01:26:56.052Z,-8.40
2023-01-29T01:29:59.968Z,-8.22
2023-01-29T01:33:03.520Z,-8.05
2023-01-29T01:36:10.564Z,-7.98
2023-01-29T01:39:14.194Z,-7.88
2023-01-29T01:42:18.545Z,-7.70
2023-01-29T01:45:36.566Z,-7.59
2023-01-29T01:48:40.854Z,-7.56
2023-01-29T01:51:48.732Z,-7.83
2023-01-29T01:54:52.781Z,-7.88
2023-01-29T01:58:07.951Z,-7.90
2023-01-29T02:01:13.676Z,-7.98
2023-01-29T02:04:39.568Z,-8.01
2023-01-29T02:08:04.754Z,-7.86
2023-01-29T02:11:08.740Z,-7.79
2023-01-29T02:17:33.734Z,-7.95
2023-01-29T02:20:38.028Z,-7.97
2023-01-29T02:24:13.539Z,-8.07
2023-01-29T02:27:37.647Z,-8.11
2023-01-29T02:31:09.989Z,-7.98
2023-01-29T02:34:28.680Z,-7.93
2023-01-29T02:37:43.184Z,-7.84
2023-01-29T02:40:55.729Z,-7.73
2023-01-29T02:44:16.844Z,-7.64
2023-01-29T02:47:32.989Z,-7.63
2023-01-29T02:50:55.630Z,-7.70
2023-01-29T02:54:17.709Z,-7.69
2023-01-29T02:57:29.612Z,-7.57
2023-01-29T03:00:39.352Z,-7.63
2023-01-29T03:03:46.574Z,-7.66
2023-01-29T03:06:55.246Z,-7.54
2023-01-29T03:09:59.951Z,-7.28
2023-01-29T03:13:09.707Z,-7.09
2023-01-29T03:16:52.544Z,-6.97
2023-01-29T03:19:57.821Z,-6.74
2023-01-29T03:23:15.120Z,-6.52
2023-01-29T03:26:40.832Z,-6.39
2023-01-29T03:30:07.349Z,-6.50
2023-01-29T03:33:47.601Z,-6.33
2023-01-29T03:37:23.129Z,-6.25
2023-01-29T03:40:30.029Z,-6.09
2023-01-29T03:43:54.636Z,-6.15
2023-01-29T03:47:14.337Z,-6.08
2023-01-29T03:50:18.151Z,-5.98
2023-01-29T03:53:35.981Z,-6.12
2023-01-29T03:57:12.026Z,-6.14
2023-01-29T04:00:23.715Z,-6.15
2023-01-29T04:03:58.072Z,-6.19
2023-01-29T04:07:10.022Z,-6.02
2023-01-29T04:10:18.800Z,-6.17
2023-01-29T04:13:24.442Z,-6.09
2023-01-29T04:16:39.712Z,-5.98
2023-01-29T04:19:57.650Z,-5.79
2023-01-29T04:23:01.382Z,-5.66
2023-01-29T04:26:30.062Z,-5.70
2023-01-29T04:29:54.445Z,-5.70
2023-01-29T04:33:17.514Z,-5.67
2023-01-29T04:37:00.753Z,-5.76
2023-01-29T04:40:09.710Z,-5.80
2023-01-29T04:43:45.444Z,-5.62
2023-01-29T04:47:25.267Z,-5.52
2023-01-29T04:50:40.865Z,-5.31
2023-01-29T04:53:57.068Z,-5.19
2023-01-29T04:57:20.049Z,-5.12
2023-01-29T05:00:26.568Z,-4.98
2023-01-29T05:03:33.352Z,-4.52
2023-01-29T05:06:38.938Z,-4.18
2023-01-29T05:09:46.051Z,-3.95
2023-01-29T05:12:55.993Z,-4.08
2023-01-29T05:16:16.944Z,-4.02
2023-01-29T05:19:20.514Z,-3.56
2023-01-29T05:22:24.968Z,-3.74
2023-01-29T05:25:31.511Z,-3.81
2023-01-29T05:28:34.699Z,-4.15
2023-01-29T05:31:37.534Z,-4.65
2023-01-29T05:34:40.534Z,-4.65
2023-01-29T05:37:44.199Z,-4.81
2023-01-29T05:40:47.625Z,-5.05
2023-01-29T05:43:50.584Z,-5.09
2023-01-29T05:46:54.201Z,-5.11
2023-01-29T05:49:58.197Z,-5.07
2023-01-29T05:53:02.648Z,-4.98
2023-01-29T05:56:06.653Z,-4.94
2023-01-29T05:59:09.962Z,-4.81
2023-01-29T06:02:13.256Z,-4.77
2023-01-29T06:05:16.968Z,-4.60
2023-01-29T06:08:21.032Z,-4.49
2023-01-29T06:11:25.200Z,-4.49
2023-01-29T06:14:29.030Z,-4.30
2023-01-29T06:17:32.005Z,-4.14
2023-01-29T06:20:35.282Z,-4.15
2023-01-29T06:23:38.367Z,-4.14
2023-01-29T06:26:41.332Z,-4.17
2023-01-29T06:29:44.162Z,-4.14
2023-01-29T06:32:47.476Z,-4.29
2023-01-29T06:35:50.289Z,-4.17
2023-01-29T06:38:54.229Z,-4.08
2023-01-29T06:41:57.458Z,-4.01
2023-01-29T06:45:00.477Z,-4.04
2023-01-29T06:48:03.426Z,-4.09
2023-01-29T06:51:08.765Z,-4.07
2023-01-29T06:54:11.968Z,-4.01
2023-01-29T06:57:15.252Z,-3.91
2023-01-29T07:00:20.137Z,-3.77
2023-01-29T07:03:23.795Z,-3.74
2023-01-29T07:06:30.914Z,-3.59
2023-01-29T07:09:34.958Z,-3.49
2023-01-29T07:12:38.106Z,-3.48
2023-01-29T07:15:41.691Z,-3.04
2023-01-29T07:18:44.625Z,-3.07
2023-01-29T07:21:48.642Z,-2.83
2023-01-29T07:24:52.101Z,-2.74
2023-01-29T07:27:56.068Z,-2.90
2023-01-29T07:31:00.285Z,-3.15
2023-01-29T07:34:04.551Z,-3.45
2023-01-29T07:37:08.301Z,-3.81
2023-01-29T07:40:12.776Z,-4.05
2023-01-29T07:43:17.317Z,-4.15
2023-01-29T07:46:21.209Z,-4.14
2023-01-29T07:49:24.821Z,-4.07
2023-01-29T07:52:29.947Z,-4.07
2023-01-29T07:55:35.048Z,-4.24
2023-01-29T07:58:38.351Z,-4.46
2023-01-29T08:01:42.314Z,-4.53
2023-01-29T08:04:45.901Z,-4.49
2023-01-29T08:08:06.116Z,-4.33
2023-01-29T08:11:10.413Z,-4.30
2023-01-29T08:14:14.424Z,-4.42
2023-01-29T08:17:17.872Z,-4.67
2023-01-29T08:20:22.355Z,-5.00
2023-01-29T08:23:25.571Z,-5.14
2023-01-29T08:26:29.724Z,-5.04
2023-01-29T08:29:32.971Z,-4.85
2023-01-29T08:32:37.235Z,-4.77
2023-01-29T08:35:41.783Z,-4.73
2023-01-29T08:38:46.113Z,-4.73
2023-01-29T08:41:49.692Z,-4.80
2023-01-29T08:44:53.267Z,-4.85
2023-01-29T08:47:56.999Z,-4.95
2023-01-29T08:51:03.167Z,-5.01
2023-01-29T08:54:06.807Z,-5.25
2023-01-29T08:57:10.471Z,-5.58
2023-01-29T09:00:15.936Z,-5.88
2023-01-29T09:03:20.074Z,-6.22
2023-01-29T09:06:23.186Z,-6.46
2023-01-29T09:09:27.081Z,-6.63
2023-01-29T09:12:31.264Z,-6.80
2023-01-29T09:15:34.924Z,-6.93
2023-01-29T09:18:38.915Z,-7.07
2023-01-29T09:21:42.497Z,-7.16
2023-01-29T09:24:46.372Z,-7.29
2023-01-29T09:27:49.617Z,-7.35
2023-01-29T09:30:53.576Z,-7.43
2023-01-29T09:33:57.272Z,-7.50
2023-01-29T09:37:00.914Z,-7.63
2023-01-29T09:40:04.651Z,-7.69
2023-01-29T09:43:35.587Z,-7.77
2023-01-29T09:46:43.830Z,-7.88
2023-01-29T09:50:28.974Z,-7.98
2023-01-29T09:53:43.981Z,-7.99
2023-01-29T09:56:49.163Z,-8.05
2023-01-29T09:59:55.636Z,-8.11
2023-01-29T10:03:32.229Z,-8.12
2023-01-29T10:06:50.657Z,-8.17
2023-01-29T10:10:36.897Z,-8.33
2023-01-29T10:14:16.214Z,-8.36
2023-01-29T10:17:29.312Z,-8.36
2023-01-29T10:21:05.673Z,-8.25
2023-01-29T10:24:38.815Z,-8.25
2023-01-29T10:27:51.950Z,-8.25
2023-01-29T10:31:10.338Z,-8.19
2023-01-29T10:34:24.656Z,-8.22
2023-01-29T10:37:41.640Z,-8.19
2023-01-29T10:40:57.132Z,-8.22
2023-01-29T10:44:03.266Z,-8.18
2023-01-29T10:47:53.157Z,-8.15
2023-01-29T10:50:59.277Z,-8.09
2023-01-29T10:54:14.727Z,-8.02
2023-01-29T10:57:22.169Z,-8.02
2023-01-29T11:00:31.663Z,-8.01
2023-01-29T11:03:35.870Z,-7.97
2023-01-29T11:06:39.498Z,-7.99
2023-01-29T11:10:01.694Z,-7.99
2023-01-29T11:13:06.339Z,-8.05
2023-01-29T11:16:12.015Z,-8.12
2023-01-29T11:19:16.791Z,-8.18
2023-01-29T11:22:29.826Z,-8.17
2023-01-29T11:25:33.416Z,-8.22
2023-01-29T11:28:39.757Z,-8.47
2023-01-29T11:31:43.696Z,-8.58
2023-01-29T11:35:17.745Z,-8.60
2023-01-29T11:38:29.344Z,-8.64
2023-01-29T11:41:44.402Z,-8.70
2023-01-29T11:44:47.848Z,-8.74
2023-01-29T11:47:56.826Z,-8.74
2023-01-29T11:51:01.910Z,-8.80
2023-01-29T11:54:06.331Z,-8.76
2023-01-29T11:57:26.978Z,-8.74
2023-01-29T12:00:34.061Z,-8.71
2023-01-29T12:03:47.483Z,-8.74
2023-01-29T12:06:53.792Z,-9.09
2023-01-29T12:09:59.637Z,-9.21
2023-01-29T12:13:12.709Z,-9.46
2023-01-29T12:16:49.649Z,-9.50
2023-01-29T12:20:02.114Z,-9.80
2023-01-29T12:23:25.118Z,-9.82
2023-01-29T12:26:43.964Z,-9.69
2023-01-29T12:29:59.358Z,-9.82
2023-01-29T12:33:20.514Z,-9.97
2023-01-29T12:36:34.558Z,-9.98
2023-01-29T12:39:38.428Z,-9.98
2023-01-29T12:42:47.869Z,-9.75
2023-01-29T12:45:55.050Z,-9.54
2023-01-29T12:49:04.028Z,-9.40
2023-01-29T12:52:07.729Z,-9.38
2023-01-29T12:55:18.427Z,-9.44
2023-01-29T12:58:44.382Z,-9.78
2023-01-29T13:01:57.744Z,-9.95
2023-01-29T13:05:11.419Z,-10.17
2023-01-29T13:08:40.583Z,-10.46
2023-01-29T13:12:18.157Z,-10.52
2023-01-29T13:15:44.950Z,-10.63
2023-01-29T13:18:54.589Z,-10.74
2023-01-29T13:22:02.210Z,-10.97
2023-01-29T13:25:06.596Z,-11.12
2023-01-29T13:28:26.562Z,-11.21
2023-01-29T13:31:35.531Z,-11.33
2023-01-29T13:34:46.735Z,-11.46
2023-01-29T13:37:53.954Z,-11.60
2023-01-29T13:41:03.064Z,-11.64
2023-01-29T13:44:09.719Z,-11.70
2023-01-29T13:47:24.602Z,-11.74
2023-01-29T13:50:38.497Z,-11.82
2023-01-29T13:53:43.813Z,-11.87
2023-01-29T13:57:00.134Z,-11.87
2023-01-29T14:00:04.054Z,-11.87
2023-01-29T14:03:09.735Z,-11.91
2023-01-29T14:06:38.911Z,-12.09
2023-01-29T14:09:42.531Z,-12.15
2023-01-29T14:12:47.249Z,-12.22
2023-01-29T14:15:59.905Z,-12.19
2023-01-29T14:19:05.937Z,-12.18
2023-01-29T14:22:23.977Z,-12.12
2023-01-29T14:25:36.093Z,-12.08
2023-01-29T14:28:41.240Z,-12.09
2023-01-29T14:31:53.796Z,-12.07
2023-01-29T14:35:18.097Z,-12.14
2023-01-29T14:38:27.150Z,-12.11
2023-01-29T14:41:32.596Z,-12.16
2023-01-29T14:44:45.247Z,-12.32
2023-01-29T14:47:48.433Z,-12.47
2023-01-29T14:50:53.980Z,-12.56
2023-01-29T14:54:03.661Z,-12.60
2023-01-29T14:57:13.212Z,-12.71
2023-01-29T15:00:27.897Z,-12.68
2023-01-29T15:03:46.345Z,-12.61
2023-01-29T15:07:08.403Z,-12.54
2023-01-29T15:10:23.491Z,-12.52
2023-01-29T15:13:43.177Z,-12.56
2023-01-29T15:17:23.821Z,-12.66
2023-01-29T15:20:29.999Z,-12.78
2023-01-29T15:23:35.249Z,-12.89
2023-01-29T15:26:39.595Z,-12.98
2023-01-29T15:29:44.939Z,-13.05
2023-01-29T15:32:50.018Z,-13.05
2023-01-29T15:36:07.304Z,-13.06
2023-01-29T15:39:14.436Z,-13.09
2023-01-29T15:42:22.387Z,-13.19
2023-01-29T15:45:33.980Z,-13.19
2023-01-29T15:48:41.591Z,-13.19
2023-01-29T15:51:47.996Z,-13.18
2023-01-29T15:54:52.198Z,-13.15
2023-01-29T15:57:56.377Z,-13.22
2023-01-29T16:01:01.338Z,-13.23
2023-01-29T16:04:05.711Z,-13.32
2023-01-29T16:07:08.807Z,-13.53
2023-01-29T16:10:22.313Z,-13.63
2023-01-29T16:13:29.812Z,-13.75
2023-01-29T16:16:33.727Z,-13.83
2023-01-29T16:19:39.806Z,-13.91
2023-01-29T16:22:43.474Z,-14.03
2023-01-29T16:25:47.277Z,-14.13
2023-01-29T16:28:51.797Z,-14.30
2023-01-29T16:32:01.446Z,-14.37
2023-01-29T16:35:06.405Z,-14.44
2023-01-29T16:38:32.119Z,-14.48
2023-01-29T16:41:39.187Z,-14.51
2023-01-29T16:44:47.201Z,-14.50
2023-01-29T16:48:02.484Z,-14.47
2023-01-29T16:51:29.280Z,-14.50
2023-01-29T16:54:32.555Z,-14.56
2023-01-29T16:57:35.544Z,-14.57
2023-01-29T17:00:38.863Z,-14.64
2023-01-29T17:03:43.264Z,-14.65
2023-01-29T17:06:49.745Z,-14.78
2023-01-29T17:09:59.911Z,-14.89
2023-01-29T17:13:07.815Z,-15.02
2023-01-29T17:16:25.094Z,-15.03
2023-01-29T17:19:28.196Z,-15.27
2023-01-29T17:22:31.761Z,-15.22
2023-01-29T17:25:34.746Z,-15.20
2023-01-29T17:28:37.983Z,-15.28
2023-01-29T17:31:41.191Z,-15.28
2023-01-29T17:34:44.903Z,-15.27
2023-01-29T17:37:49.389Z,-15.34
2023-01-29T17:40:56.507Z,-15.38
2023-01-29T17:43:59.885Z,-15.38
2023-01-29T17:47:03.777Z,-15.33
2023-01-29T17:50:21.305Z,-15.34
2023-01-29T17:53:26.519Z,-15.38
2023-01-29T17:56:33.950Z,-15.47
2023-01-29T17:59:37.145Z,-15.54
2023-01-29T18:02:40.736Z,-15.54
2023-01-29T18:05:49.176Z,-15.72
2023-01-29T18:08:53.041Z,-15.78
2023-01-29T18:11:56.199Z,-15.85
2023-01-29T18:14:59.761Z,-15.86
2023-01-29T18:18:03.357Z,-15.95
2023-01-29T18:21:06.837Z,-15.93
2023-01-29T18:24:10.186Z,-15.97
2023-01-29T18:27:13.295Z,-16.03
2023-01-29T18:30:17.148Z,-16.03
2023-01-29T18:33:20.822Z,-15.95
2023-01-29T18:36:25.068Z,-15.95
2023-01-29T18:39:28.272Z,-16.04
2023-01-29T18:42:34.187Z,-16.27
2023-01-29T18:45:37.937Z,-16.41
2023-01-29T18:48:42.761Z,-16.34
2023-01-29T18:51:46.444Z,-16.18
2023-01-29T18:54:50.762Z,-16.14
2023-01-29T18:58:28.747Z,-16.13
2023-01-29T19:01:18.912Z,-16.14
2023-01-29T19:04:21.921Z,-16.20
2023-01-29T19:07:25.695Z,-16.24
2023-01-29T19:10:28.918Z,-16.45
2023-01-29T19:13:33.495Z,-16.68
2023-01-29T19:16:36.972Z,-16.83
2023-01-29T19:19:40.322Z,-16.90
2023-01-29T19:22:44.835Z,-17.00
2023-01-29T19:25:48.196Z,-17.02
2023-01-29T19:28:51.891Z,-16.92
2023-01-29T19:31:55.181Z,-16.93
2023-01-29T19:34:59.174Z,-16.95
2023-01-29T19:38:03.311Z,-16.90
2023-01-29T19:41:07.294Z,-16.88
2023-01-29T19:44:12.430Z,-16.80
2023-01-29T19:47:16.272Z,-16.88
2023-01-29T19:50:19.963Z,-16.88
2023-01-29T19:53:23.635Z,-16.85
2023-01-29T19:56:26.880Z,-16.86
2023-01-29T19:59:30.455Z,-16.89
2023-01-29T20:02:34.464Z,-16.85
2023-01-29T20:05:38.083Z,-16.90
2023-01-29T20:08:41.170Z,-16.89
2023-01-29T20:11:44.778Z,-16.95
2023-01-29T20:14:49.823Z,-16.95
2023-01-29T20:17:52.712Z,-16.95
2023-01-29T20:20:56.830Z,-16.95
2023-01-29T20:24:00.557Z,-17.11
2023-01-29T20:27:04.230Z,-17.11
2023-01-29T20:30:09.072Z,-17.20
2023-01-29T20:33:13.344Z,-17.26
2023-01-29T20:36:16.911Z,-17.30
2023-01-29T20:39:20.184Z,-17.38
2023-01-29T20:42:23.597Z,-17.44
2023-01-29T20:45:27.609Z,-17.56
2023-01-29T20:48:32.204Z,-17.63
2023-01-29T20:51:35.668Z,-17.67
2023-01-29T20:54:39.324Z,-17.65
2023-01-29T20:57:43.729Z,-17.65
2023-01-29T21:01:15.983Z,-17.63
2023-01-29T21:04:19.732Z,-17.55
2023-01-29T21:07:23.136Z,-17.54
2023-01-29T21:10:25.990Z,-17.52
2023-01-29T21:13:28.976Z,-17.47
2023-01-29T21:16:32.715Z,-17.51
2023-01-29T21:19:36.064Z,-17.62
2023-01-29T21:22:39.488Z,-17.69
2023-01-29T21:25:43.116Z,-17.73
2023-01-29T21:28:47.074Z,-17.79
2023-01-29T21:31:51.100Z,-17.69
2023-01-29T21:34:54.969Z,-17.69
2023-01-29T21:37:57.957Z,-17.67
2023-01-29T21:41:05.895Z,-17.72
2023-01-29T21:44:09.084Z,-17.72
2023-01-29T21:47:15.582Z,-17.75
2023-01-29T21:50:18.829Z,-17.72
2023-01-29T21:53:23.226Z,-17.73
2023-01-29T21:56:26.551Z,-17.90
2023-01-29T21:59:30.154Z,-17.97
2023-01-29T22:02:33.865Z,-17.94
2023-01-29T22:05:36.910Z,-17.86
2023-01-29T22:08:41.238Z,-17.80
2023-01-29T22:11:44.417Z,-17.93
2023-01-29T22:14:48.311Z,-18.06
2023-01-29T22:17:52.343Z,-18.13
2023-01-29T22:20:56.611Z,-18.01
2023-01-29T22:23:59.525Z,-17.96
2023-01-29T22:27:02.811Z,-17.87
2023-01-29T22:30:07.140Z,-17.89
2023-01-29T22:33:11.395Z,-17.93
2023-01-29T22:36:14.644Z,-18.00
2023-01-29T22:39:17.959Z,-18.00
2023-01-29T22:42:21.288Z,-18.18
2023-01-29T22:45:25.459Z,-18.26
2023-01-29T22:48:29.145Z,-18.28
2023-01-29T22:51:40.215Z,-18.31
2023-01-29T22:54:44.457Z,-18.29
2023-01-29T22:57:50.650Z,-18.36
2023-01-29T23:00:53.524Z,-18.42
2023-01-29T23:03:56.896Z,-18.56
2023-01-29T23:06:59.837Z,-18.70
2023-01-29T23:10:05.171Z,-18.79
2023-01-29T23:13:09.124Z,-18.85
2023-01-29T23:16:14.341Z,-18.91
2023-01-29T23:19:18.171Z,-18.88
2023-01-29T23:22:21.230Z,-18.91
2023-01-29T23:25:44.268Z,-18.97
2023-01-29T23:28:48.301Z,-19.00
2023-01-29T23:31:51.370Z,-18.97
2023-01-29T23:34:55.216Z,-18.91
2023-01-29T23:37:58.917Z,-18.90
2023-01-29T23:41:02.058Z,-18.85
2023-01-29T23:44:05.665Z,-18.74
2023-01-29T23:47:10.161Z,-18.64
2023-01-29T23:50:13.646Z,-18.57
2023-01-29T23:53:17.313Z,-18.51
2023-01-29T23:56:20.431Z,-18.48
2023-01-29T23:59:24.545Z,-18.44
